sensor_id;sensor_type;location;lat;lon;timestamp;P1;durP1;ratioP1;P2;durP2;ratioP2
31206;SDS011;17834;52.992;8.856;2022-10-31T00:00:40;46.78;;;21.58;;
31206;SDS011;17834;52.992;8.856;2022-10-31T00:03:06;52.28;;;22.42;;
31206;SDS011;17834;52.992;8.856;2022-10-31T00:05:32;55.50;;;21.15;;
31206;SDS011;17834;52.992;8.856;2022-10-31T00:07:58;48.88;;;22.35;;
31206;SDS011;17834;52.992;8.856;2022-10-31T00:10:24;41.97;;;22.30;;
31206;SDS011;17834;52.992;8.856;2022-10-31T00:12:51;47.67;;;22.25;;
31206;SDS011;17834;52.992;8.856;2022-10-31T00:15:17;54.50;;;21.77;;
31206;SDS011;17834;52.992;8.856;2022-10-31T00:17:43;46.38;;;21.23;;
31206;SDS011;17834;52.992;8.856;2022-10-31T00:20:09;45.92;;;20.58;;
31206;SDS011;17834;52.992;8.856;2022-10-31T00:22:35;40.55;;;20.58;;
31206;SDS011;17834;52.992;8.856;2022-10-31T00:25:01;46.47;;;20.42;;
31206;SDS011;17834;52.992;8.856;2022-10-31T00:27:27;48.47;;;21.13;;
31206;SDS011;17834;52.992;8.856;2022-10-31T00:29:53;54.38;;;22.98;;
31206;SDS011;17834;52.992;8.856;2022-10-31T00:32:19;56.95;;;21.65;;
31206;SDS011;17834;52.992;8.856;2022-10-31T00:34:45;51.45;;;22.48;;
31206;SDS011;17834;52.992;8.856;2022-10-31T00:37:11;46.10;;;19.90;;
31206;SDS011;17834;52.992;8.856;2022-10-31T00:39:37;56.70;;;24.20;;
31206;SDS011;17834;52.992;8.856;2022-10-31T00:42:03;57.13;;;23.35;;
31206;SDS011;17834;52.992;8.856;2022-10-31T00:44:29;52.33;;;23.15;;
31206;SDS011;17834;52.992;8.856;2022-10-31T00:46:55;55.85;;;26.58;;
31206;SDS011;17834;52.992;8.856;2022-10-31T00:49:21;53.33;;;23.42;;
31206;SDS011;17834;52.992;8.856;2022-10-31T00:51:47;49.63;;;21.45;;
31206;SDS011;17834;52.992;8.856;2022-10-31T00:54:13;56.20;;;24.27;;
31206;SDS011;17834;52.992;8.856;2022-10-31T00:56:39;53.63;;;24.27;;
31206;SDS011;17834;52.992;8.856;2022-10-31T00:59:05;54.70;;;25.60;;
31206;SDS011;17834;52.992;8.856;2022-10-31T01:01:31;52.08;;;23.85;;
31206;SDS011;17834;52.992;8.856;2022-10-31T01:03:57;48.13;;;21.67;;
31206;SDS011;17834;52.992;8.856;2022-10-31T01:06:23;49.53;;;20.98;;
31206;SDS011;17834;52.992;8.856;2022-10-31T01:08:49;46.65;;;21.27;;
31206;SDS011;17834;52.992;8.856;2022-10-31T01:11:16;66.75;;;23.85;;
31206;SDS011;17834;52.992;8.856;2022-10-31T01:13:43;50.85;;;23.08;;
31206;SDS011;17834;52.992;8.856;2022-10-31T01:16:10;60.72;;;25.35;;
31206;SDS011;17834;52.992;8.856;2022-10-31T01:18:36;47.85;;;21.52;;
31206;SDS011;17834;52.992;8.856;2022-10-31T01:21:04;47.75;;;21.08;;
31206;SDS011;17834;52.992;8.856;2022-10-31T01:23:30;55.15;;;21.95;;
31206;SDS011;17834;52.992;8.856;2022-10-31T01:26:16;50.55;;;23.83;;
31206;SDS011;17834;52.992;8.856;2022-10-31T01:28:44;52.13;;;21.25;;
31206;SDS011;17834;52.992;8.856;2022-10-31T01:31:10;47.92;;;21.90;;
31206;SDS011;17834;52.992;8.856;2022-10-31T01:33:37;56.03;;;21.02;;
31206;SDS011;17834;52.992;8.856;2022-10-31T01:36:12;45.15;;;20.08;;
31206;SDS011;17834;52.992;8.856;2022-10-31T01:38:39;46.22;;;19.73;;
31206;SDS011;17834;52.992;8.856;2022-10-31T01:41:05;47.40;;;21.80;;
31206;SDS011;17834;52.992;8.856;2022-10-31T01:43:44;44.80;;;20.25;;
31206;SDS011;17834;52.992;8.856;2022-10-31T01:46:11;46.40;;;20.95;;
31206;SDS011;17834;52.992;8.856;2022-10-31T01:48:38;43.63;;;19.08;;
31206;SDS011;17834;52.992;8.856;2022-10-31T01:51:05;51.22;;;21.77;;
31206;SDS011;17834;52.992;8.856;2022-10-31T01:53:31;48.35;;;20.20;;
31206;SDS011;17834;52.992;8.856;2022-10-31T01:55:57;48.92;;;21.30;;
31206;SDS011;17834;52.992;8.856;2022-10-31T01:58:25;44.38;;;19.98;;
31206;SDS011;17834;52.992;8.856;2022-10-31T02:00:55;45.00;;;19.90;;
31206;SDS011;17834;52.992;8.856;2022-10-31T02:03:21;46.08;;;20.15;;
31206;SDS011;17834;52.992;8.856;2022-10-31T02:05:48;45.47;;;20.90;;
31206;SDS011;17834;52.992;8.856;2022-10-31T02:10:43;49.58;;;19.63;;
31206;SDS011;17834;52.992;8.856;2022-10-31T02:13:09;43.00;;;20.08;;
31206;SDS011;17834;52.992;8.856;2022-10-31T02:15:38;50.47;;;19.80;;
31206;SDS011;17834;52.992;8.856;2022-10-31T02:18:04;48.67;;;21.30;;
31206;SDS011;17834;52.992;8.856;2022-10-31T02:20:32;51.40;;;20.95;;
31206;SDS011;17834;52.992;8.856;2022-10-31T02:26:00;42.42;;;20.85;;
31206;SDS011;17834;52.992;8.856;2022-10-31T02:28:34;51.63;;;20.98;;
31206;SDS011;17834;52.992;8.856;2022-10-31T02:33:52;59.03;;;22.35;;
31206;SDS011;17834;52.992;8.856;2022-10-31T02:36:24;44.97;;;20.50;;
31206;SDS011;17834;52.992;8.856;2022-10-31T02:38:59;48.63;;;20.15;;
31206;SDS011;17834;52.992;8.856;2022-10-31T02:41:48;49.65;;;20.58;;
31206;SDS011;17834;52.992;8.856;2022-10-31T02:46:45;50.60;;;21.48;;
31206;SDS011;17834;52.992;8.856;2022-10-31T02:49:25;47.78;;;21.02;;
31206;SDS011;17834;52.992;8.856;2022-10-31T02:51:53;55.75;;;22.20;;
31206;SDS011;17834;52.992;8.856;2022-10-31T02:54:21;54.17;;;21.65;;
31206;SDS011;17834;52.992;8.856;2022-10-31T02:56:48;49.08;;;20.88;;
31206;SDS011;17834;52.992;8.856;2022-10-31T02:59:14;49.88;;;21.48;;
31206;SDS011;17834;52.992;8.856;2022-10-31T03:04:34;48.20;;;21.02;;
31206;SDS011;17834;52.992;8.856;2022-10-31T03:07:05;49.80;;;21.98;;
31206;SDS011;17834;52.992;8.856;2022-10-31T03:09:42;63.80;;;23.25;;
31206;SDS011;17834;52.992;8.856;2022-10-31T03:12:16;57.58;;;22.80;;
31206;SDS011;17834;52.992;8.856;2022-10-31T03:14:49;47.10;;;21.10;;
31206;SDS011;17834;52.992;8.856;2022-10-31T03:17:20;48.60;;;20.65;;
31206;SDS011;17834;52.992;8.856;2022-10-31T03:19:49;51.47;;;21.48;;
31206;SDS011;17834;52.992;8.856;2022-10-31T03:22:22;41.28;;;20.67;;
31206;SDS011;17834;52.992;8.856;2022-10-31T03:24:48;67.93;;;26.27;;
31206;SDS011;17834;52.992;8.856;2022-10-31T03:27:16;47.22;;;21.50;;
31206;SDS011;17834;52.992;8.856;2022-10-31T03:29:43;48.15;;;21.85;;
31206;SDS011;17834;52.992;8.856;2022-10-31T03:32:14;56.80;;;22.67;;
31206;SDS011;17834;52.992;8.856;2022-10-31T03:34:42;48.55;;;21.10;;
31206;SDS011;17834;52.992;8.856;2022-10-31T03:37:10;50.88;;;21.40;;
31206;SDS011;17834;52.992;8.856;2022-10-31T03:39:37;45.92;;;20.33;;
31206;SDS011;17834;52.992;8.856;2022-10-31T03:42:05;57.50;;;22.92;;
31206;SDS011;17834;52.992;8.856;2022-10-31T03:44:32;48.00;;;21.10;;
31206;SDS011;17834;52.992;8.856;2022-10-31T03:46:58;56.20;;;22.30;;
31206;SDS011;17834;52.992;8.856;2022-10-31T03:49:25;50.40;;;22.08;;
31206;SDS011;17834;52.992;8.856;2022-10-31T03:59:37;47.63;;;21.33;;
31206;SDS011;17834;52.992;8.856;2022-10-31T04:02:07;46.45;;;20.50;;
31206;SDS011;17834;52.992;8.856;2022-10-31T04:04:36;42.60;;;20.30;;
31206;SDS011;17834;52.992;8.856;2022-10-31T04:07:02;47.40;;;19.50;;
31206;SDS011;17834;52.992;8.856;2022-10-31T04:09:29;46.22;;;21.13;;
31206;SDS011;17834;52.992;8.856;2022-10-31T04:11:58;48.90;;;21.88;;
31206;SDS011;17834;52.992;8.856;2022-10-31T04:14:26;57.63;;;22.23;;
31206;SDS011;17834;52.992;8.856;2022-10-31T04:16:53;54.70;;;23.02;;
31206;SDS011;17834;52.992;8.856;2022-10-31T04:19:19;56.78;;;23.77;;
31206;SDS011;17834;52.992;8.856;2022-10-31T04:21:45;59.10;;;22.40;;
31206;SDS011;17834;52.992;8.856;2022-10-31T04:24:11;48.35;;;22.70;;
31206;SDS011;17834;52.992;8.856;2022-10-31T04:26:37;57.80;;;24.42;;
31206;SDS011;17834;52.992;8.856;2022-10-31T04:29:03;59.80;;;26.15;;
31206;SDS011;17834;52.992;8.856;2022-10-31T04:31:29;54.70;;;25.17;;
31206;SDS011;17834;52.992;8.856;2022-10-31T04:33:55;58.95;;;26.05;;
31206;SDS011;17834;52.992;8.856;2022-10-31T04:36:21;60.65;;;25.70;;
31206;SDS011;17834;52.992;8.856;2022-10-31T04:38:47;63.65;;;25.80;;
31206;SDS011;17834;52.992;8.856;2022-10-31T04:41:13;58.90;;;24.42;;
31206;SDS011;17834;52.992;8.856;2022-10-31T04:43:39;57.78;;;21.92;;
31206;SDS011;17834;52.992;8.856;2022-10-31T04:46:05;65.47;;;25.83;;
31206;SDS011;17834;52.992;8.856;2022-10-31T04:48:31;54.47;;;21.50;;
31206;SDS011;17834;52.992;8.856;2022-10-31T04:51:00;59.15;;;23.33;;
31206;SDS011;17834;52.992;8.856;2022-10-31T04:53:26;48.97;;;22.52;;
31206;SDS011;17834;52.992;8.856;2022-10-31T04:55:52;55.63;;;21.35;;
31206;SDS011;17834;52.992;8.856;2022-10-31T04:58:18;47.78;;;22.13;;
31206;SDS011;17834;52.992;8.856;2022-10-31T05:00:44;46.78;;;20.05;;
31206;SDS011;17834;52.992;8.856;2022-10-31T05:03:10;67.80;;;26.30;;
31206;SDS011;17834;52.992;8.856;2022-10-31T05:05:36;55.20;;;24.63;;
31206;SDS011;17834;52.992;8.856;2022-10-31T05:08:02;57.78;;;24.52;;
31206;SDS011;17834;52.992;8.856;2022-10-31T05:10:29;56.60;;;23.27;;
31206;SDS011;17834;52.992;8.856;2022-10-31T05:12:56;63.20;;;24.65;;
31206;SDS011;17834;52.992;8.856;2022-10-31T05:15:23;62.60;;;25.45;;
31206;SDS011;17834;52.992;8.856;2022-10-31T05:17:49;46.33;;;20.95;;
31206;SDS011;17834;52.992;8.856;2022-10-31T05:20:16;55.78;;;22.38;;
31206;SDS011;17834;52.992;8.856;2022-10-31T05:22:42;66.57;;;24.98;;
31206;SDS011;17834;52.992;8.856;2022-10-31T05:25:09;53.35;;;21.70;;
31206;SDS011;17834;52.992;8.856;2022-10-31T05:27:37;52.13;;;21.67;;
31206;SDS011;17834;52.992;8.856;2022-10-31T05:30:04;51.28;;;20.83;;
31206;SDS011;17834;52.992;8.856;2022-10-31T05:32:30;49.20;;;21.15;;
31206;SDS011;17834;52.992;8.856;2022-10-31T05:34:56;46.35;;;20.63;;
31206;SDS011;17834;52.992;8.856;2022-10-31T05:37:22;49.63;;;19.73;;
31206;SDS011;17834;52.992;8.856;2022-10-31T05:39:48;50.63;;;20.65;;
31206;SDS011;17834;52.992;8.856;2022-10-31T05:42:14;50.80;;;19.83;;
31206;SDS011;17834;52.992;8.856;2022-10-31T05:44:40;50.60;;;20.25;;
31206;SDS011;17834;52.992;8.856;2022-10-31T05:47:06;44.72;;;20.85;;
31206;SDS011;17834;52.992;8.856;2022-10-31T05:49:32;53.30;;;19.75;;
31206;SDS011;17834;52.992;8.856;2022-10-31T05:51:58;40.85;;;17.73;;
31206;SDS011;17834;52.992;8.856;2022-10-31T05:54:24;44.33;;;18.05;;
31206;SDS011;17834;52.992;8.856;2022-10-31T05:56:50;41.40;;;18.95;;
31206;SDS011;17834;52.992;8.856;2022-10-31T05:59:16;44.65;;;19.50;;
31206;SDS011;17834;52.992;8.856;2022-10-31T06:01:42;42.78;;;19.33;;
31206;SDS011;17834;52.992;8.856;2022-10-31T06:04:08;53.15;;;21.00;;
31206;SDS011;17834;52.992;8.856;2022-10-31T06:06:34;49.28;;;19.90;;
31206;SDS011;17834;52.992;8.856;2022-10-31T06:09:00;48.67;;;20.98;;
31206;SDS011;17834;52.992;8.856;2022-10-31T06:11:26;44.90;;;20.63;;
31206;SDS011;17834;52.992;8.856;2022-10-31T06:13:52;47.15;;;19.48;;
31206;SDS011;17834;52.992;8.856;2022-10-31T06:16:18;38.10;;;18.95;;
31206;SDS011;17834;52.992;8.856;2022-10-31T06:18:45;54.25;;;19.58;;
31206;SDS011;17834;52.992;8.856;2022-10-31T06:21:11;43.38;;;19.67;;
31206;SDS011;17834;52.992;8.856;2022-10-31T06:23:37;47.70;;;19.67;;
31206;SDS011;17834;52.992;8.856;2022-10-31T06:26:02;46.70;;;20.30;;
31206;SDS011;17834;52.992;8.856;2022-10-31T06:28:28;47.78;;;19.42;;
31206;SDS011;17834;52.992;8.856;2022-10-31T06:30:54;45.85;;;19.67;;
31206;SDS011;17834;52.992;8.856;2022-10-31T06:33:20;48.35;;;18.35;;
31206;SDS011;17834;52.992;8.856;2022-10-31T06:35:46;47.03;;;20.92;;
31206;SDS011;17834;52.992;8.856;2022-10-31T06:38:13;42.85;;;19.85;;
31206;SDS011;17834;52.992;8.856;2022-10-31T06:40:39;44.10;;;20.25;;
31206;SDS011;17834;52.992;8.856;2022-10-31T06:43:05;51.50;;;21.38;;
31206;SDS011;17834;52.992;8.856;2022-10-31T06:45:31;45.63;;;20.77;;
31206;SDS011;17834;52.992;8.856;2022-10-31T06:47:57;44.88;;;20.27;;
31206;SDS011;17834;52.992;8.856;2022-10-31T06:50:23;61.92;;;23.33;;
31206;SDS011;17834;52.992;8.856;2022-10-31T06:52:50;60.08;;;25.55;;
31206;SDS011;17834;52.992;8.856;2022-10-31T06:55:16;59.65;;;23.50;;
31206;SDS011;17834;52.992;8.856;2022-10-31T06:57:48;48.05;;;21.08;;
31206;SDS011;17834;52.992;8.856;2022-10-31T07:00:14;51.80;;;22.65;;
31206;SDS011;17834;52.992;8.856;2022-10-31T07:02:40;60.35;;;24.98;;
31206;SDS011;17834;52.992;8.856;2022-10-31T07:05:06;59.47;;;23.48;;
31206;SDS011;17834;52.992;8.856;2022-10-31T07:07:32;51.30;;;22.42;;
31206;SDS011;17834;52.992;8.856;2022-10-31T07:09:58;65.15;;;24.73;;
31206;SDS011;17834;52.992;8.856;2022-10-31T07:12:24;48.05;;;20.15;;
31206;SDS011;17834;52.992;8.856;2022-10-31T07:14:50;48.58;;;22.17;;
31206;SDS011;17834;52.992;8.856;2022-10-31T07:17:16;49.83;;;22.27;;
31206;SDS011;17834;52.992;8.856;2022-10-31T07:19:42;45.80;;;21.13;;
31206;SDS011;17834;52.992;8.856;2022-10-31T07:22:08;40.40;;;18.73;;
31206;SDS011;17834;52.992;8.856;2022-10-31T07:24:34;49.13;;;22.52;;
31206;SDS011;17834;52.992;8.856;2022-10-31T07:27:00;49.03;;;22.05;;
31206;SDS011;17834;52.992;8.856;2022-10-31T07:29:26;42.88;;;21.17;;
31206;SDS011;17834;52.992;8.856;2022-10-31T07:31:52;44.35;;;20.67;;
31206;SDS011;17834;52.992;8.856;2022-10-31T07:34:18;47.13;;;21.75;;
31206;SDS011;17834;52.992;8.856;2022-10-31T07:36:44;60.67;;;25.40;;
31206;SDS011;17834;52.992;8.856;2022-10-31T07:39:10;80.57;;;27.08;;
31206;SDS011;17834;52.992;8.856;2022-10-31T07:41:36;63.97;;;24.13;;
31206;SDS011;17834;52.992;8.856;2022-10-31T07:44:01;51.78;;;22.70;;
31206;SDS011;17834;52.992;8.856;2022-10-31T07:46:27;49.08;;;22.23;;
31206;SDS011;17834;52.992;8.856;2022-10-31T07:48:53;51.20;;;21.73;;
31206;SDS011;17834;52.992;8.856;2022-10-31T07:51:19;53.47;;;21.45;;
31206;SDS011;17834;52.992;8.856;2022-10-31T07:53:45;54.08;;;23.67;;
31206;SDS011;17834;52.992;8.856;2022-10-31T07:56:11;56.47;;;23.75;;
31206;SDS011;17834;52.992;8.856;2022-10-31T07:58:37;62.25;;;25.33;;
31206;SDS011;17834;52.992;8.856;2022-10-31T08:01:03;57.45;;;22.95;;
31206;SDS011;17834;52.992;8.856;2022-10-31T08:03:29;62.50;;;24.95;;
31206;SDS011;17834;52.992;8.856;2022-10-31T08:05:56;55.90;;;24.70;;
31206;SDS011;17834;52.992;8.856;2022-10-31T08:08:22;49.30;;;23.40;;
31206;SDS011;17834;52.992;8.856;2022-10-31T08:10:49;57.90;;;23.63;;
31206;SDS011;17834;52.992;8.856;2022-10-31T08:13:15;50.92;;;23.90;;
31206;SDS011;17834;52.992;8.856;2022-10-31T08:15:41;58.70;;;26.58;;
31206;SDS011;17834;52.992;8.856;2022-10-31T08:18:16;55.97;;;26.02;;
31206;SDS011;17834;52.992;8.856;2022-10-31T08:20:44;49.73;;;24.43;;
31206;SDS011;17834;52.992;8.856;2022-10-31T08:23:11;43.92;;;21.17;;
31206;SDS011;17834;52.992;8.856;2022-10-31T08:25:37;44.10;;;22.27;;
31206;SDS011;17834;52.992;8.856;2022-10-31T08:28:04;44.90;;;23.17;;
31206;SDS011;17834;52.992;8.856;2022-10-31T08:30:31;58.00;;;26.40;;
31206;SDS011;17834;52.992;8.856;2022-10-31T08:32:58;55.67;;;27.10;;
31206;SDS011;17834;52.992;8.856;2022-10-31T08:35:24;51.22;;;25.88;;
31206;SDS011;17834;52.992;8.856;2022-10-31T08:37:54;52.08;;;27.10;;
31206;SDS011;17834;52.992;8.856;2022-10-31T08:40:20;53.75;;;24.40;;
31206;SDS011;17834;52.992;8.856;2022-10-31T08:42:46;51.97;;;25.88;;
31206;SDS011;17834;52.992;8.856;2022-10-31T08:45:12;54.85;;;27.63;;
31206;SDS011;17834;52.992;8.856;2022-10-31T08:47:38;54.20;;;26.60;;
31206;SDS011;17834;52.992;8.856;2022-10-31T08:50:04;50.22;;;26.27;;
31206;SDS011;17834;52.992;8.856;2022-10-31T08:52:30;54.30;;;27.15;;
31206;SDS011;17834;52.992;8.856;2022-10-31T08:54:56;51.78;;;25.52;;
31206;SDS011;17834;52.992;8.856;2022-10-31T08:57:22;52.70;;;25.63;;
31206;SDS011;17834;52.992;8.856;2022-10-31T08:59:48;55.60;;;27.13;;
31206;SDS011;17834;52.992;8.856;2022-10-31T09:02:14;47.53;;;23.85;;
31206;SDS011;17834;52.992;8.856;2022-10-31T09:04:40;45.97;;;23.63;;
31206;SDS011;17834;52.992;8.856;2022-10-31T09:07:06;47.60;;;24.50;;
31206;SDS011;17834;52.992;8.856;2022-10-31T09:09:32;50.00;;;23.75;;
31206;SDS011;17834;52.992;8.856;2022-10-31T09:11:58;48.65;;;25.35;;
31206;SDS011;17834;52.992;8.856;2022-10-31T09:14:24;51.45;;;25.02;;
31206;SDS011;17834;52.992;8.856;2022-10-31T09:16:50;49.65;;;24.58;;
31206;SDS011;17834;52.992;8.856;2022-10-31T09:19:16;44.45;;;23.08;;
31206;SDS011;17834;52.992;8.856;2022-10-31T09:21:42;42.53;;;22.05;;
31206;SDS011;17834;52.992;8.856;2022-10-31T09:24:08;37.60;;;20.50;;
31206;SDS011;17834;52.992;8.856;2022-10-31T09:26:34;35.70;;;20.38;;
31206;SDS011;17834;52.992;8.856;2022-10-31T09:29:00;37.60;;;19.20;;
31206;SDS011;17834;52.992;8.856;2022-10-31T09:31:27;40.47;;;20.98;;
31206;SDS011;17834;52.992;8.856;2022-10-31T09:33:53;33.47;;;19.30;;
31206;SDS011;17834;52.992;8.856;2022-10-31T09:36:19;41.88;;;21.40;;
31206;SDS011;17834;52.992;8.856;2022-10-31T09:38:45;35.72;;;19.15;;
31206;SDS011;17834;52.992;8.856;2022-10-31T09:43:50;37.15;;;21.20;;
31206;SDS011;17834;52.992;8.856;2022-10-31T09:46:23;36.58;;;21.13;;
31206;SDS011;17834;52.992;8.856;2022-10-31T09:51:25;33.88;;;20.98;;
31206;SDS011;17834;52.992;8.856;2022-10-31T09:53:57;37.83;;;21.27;;
31206;SDS011;17834;52.992;8.856;2022-10-31T09:56:24;38.42;;;20.33;;
31206;SDS011;17834;52.992;8.856;2022-10-31T09:58:58;34.28;;;20.63;;
31206;SDS011;17834;52.992;8.856;2022-10-31T10:01:37;34.53;;;19.92;;
31206;SDS011;17834;52.992;8.856;2022-10-31T10:04:10;36.53;;;20.58;;
31206;SDS011;17834;52.992;8.856;2022-10-31T10:06:40;38.40;;;21.17;;
31206;SDS011;17834;52.992;8.856;2022-10-31T10:09:09;37.17;;;21.73;;
31206;SDS011;17834;52.992;8.856;2022-10-31T10:11:46;36.28;;;20.05;;
31206;SDS011;17834;52.992;8.856;2022-10-31T10:14:23;39.65;;;21.83;;
31206;SDS011;17834;52.992;8.856;2022-10-31T10:22:10;40.17;;;21.02;;
31206;SDS011;17834;52.992;8.856;2022-10-31T10:32:51;41.00;;;21.85;;
31206;SDS011;17834;52.992;8.856;2022-10-31T10:37:48;37.53;;;21.85;;
31206;SDS011;17834;52.992;8.856;2022-10-31T10:40:16;37.75;;;21.80;;
31206;SDS011;17834;52.992;8.856;2022-10-31T10:45:45;30.58;;;18.50;;
31206;SDS011;17834;52.992;8.856;2022-10-31T10:48:36;38.70;;;20.40;;
31206;SDS011;17834;52.992;8.856;2022-10-31T10:51:05;38.03;;;19.83;;
31206;SDS011;17834;52.992;8.856;2022-10-31T10:58:30;35.78;;;21.10;;
31206;SDS011;17834;52.992;8.856;2022-10-31T11:00:56;37.55;;;20.88;;
31206;SDS011;17834;52.992;8.856;2022-10-31T11:03:22;39.58;;;20.77;;
31206;SDS011;17834;52.992;8.856;2022-10-31T11:05:50;33.42;;;18.48;;
31206;SDS011;17834;52.992;8.856;2022-10-31T11:08:23;30.85;;;17.15;;
31206;SDS011;17834;52.992;8.856;2022-10-31T11:10:57;33.63;;;17.25;;
31206;SDS011;17834;52.992;8.856;2022-10-31T11:13:23;37.75;;;19.15;;
31206;SDS011;17834;52.992;8.856;2022-10-31T11:18:27;35.92;;;18.50;;
31206;SDS011;17834;52.992;8.856;2022-10-31T11:20:56;38.80;;;20.15;;
31206;SDS011;17834;52.992;8.856;2022-10-31T11:23:23;40.75;;;20.88;;
31206;SDS011;17834;52.992;8.856;2022-10-31T11:26:04;40.00;;;21.17;;
31206;SDS011;17834;52.992;8.856;2022-10-31T11:28:31;40.28;;;19.77;;
31206;SDS011;17834;52.992;8.856;2022-10-31T11:30:59;41.08;;;20.20;;
31206;SDS011;17834;52.992;8.856;2022-10-31T11:33:36;41.17;;;20.08;;
31206;SDS011;17834;52.992;8.856;2022-10-31T11:36:09;38.92;;;19.60;;
31206;SDS011;17834;52.992;8.856;2022-10-31T11:38:40;37.17;;;19.38;;
31206;SDS011;17834;52.992;8.856;2022-10-31T11:41:09;31.35;;;18.55;;
31206;SDS011;17834;52.992;8.856;2022-10-31T11:43:37;41.25;;;18.88;;
31206;SDS011;17834;52.992;8.856;2022-10-31T11:46:10;36.65;;;18.52;;
31206;SDS011;17834;52.992;8.856;2022-10-31T11:48:36;36.80;;;19.00;;
31206;SDS011;17834;52.992;8.856;2022-10-31T11:51:03;34.15;;;19.15;;
31206;SDS011;17834;52.992;8.856;2022-10-31T11:53:30;33.92;;;18.10;;
31206;SDS011;17834;52.992;8.856;2022-10-31T11:56:01;36.30;;;18.98;;
31206;SDS011;17834;52.992;8.856;2022-10-31T11:58:29;38.25;;;19.60;;
31206;SDS011;17834;52.992;8.856;2022-10-31T12:00:56;34.35;;;18.52;;
31206;SDS011;17834;52.992;8.856;2022-10-31T12:05:53;43.83;;;20.88;;
31206;SDS011;17834;52.992;8.856;2022-10-31T12:08:19;36.30;;;19.48;;
31206;SDS011;17834;52.992;8.856;2022-10-31T12:16:12;35.28;;;19.02;;
31206;SDS011;17834;52.992;8.856;2022-10-31T12:18:43;41.72;;;20.45;;
31206;SDS011;17834;52.992;8.856;2022-10-31T12:23:53;31.77;;;17.65;;
31206;SDS011;17834;52.992;8.856;2022-10-31T12:26:23;29.88;;;17.02;;
31206;SDS011;17834;52.992;8.856;2022-10-31T12:29:03;26.17;;;15.32;;
31206;SDS011;17834;52.992;8.856;2022-10-31T12:36:39;31.13;;;16.08;;
31206;SDS011;17834;52.992;8.856;2022-10-31T12:39:24;33.05;;;17.83;;
31206;SDS011;17834;52.992;8.856;2022-10-31T12:41:52;30.67;;;17.15;;
31206;SDS011;17834;52.992;8.856;2022-10-31T12:44:34;34.45;;;17.17;;
31206;SDS011;17834;52.992;8.856;2022-10-31T12:47:14;34.63;;;16.23;;
31206;SDS011;17834;52.992;8.856;2022-10-31T12:57:27;32.72;;;16.90;;
31206;SDS011;17834;52.992;8.856;2022-10-31T12:59:59;31.80;;;16.77;;
31206;SDS011;17834;52.992;8.856;2022-10-31T13:02:32;37.33;;;17.98;;
31206;SDS011;17834;52.992;8.856;2022-10-31T13:05:01;36.20;;;18.17;;
31206;SDS011;17834;52.992;8.856;2022-10-31T13:07:38;36.22;;;18.48;;
31206;SDS011;17834;52.992;8.856;2022-10-31T13:10:14;40.03;;;19.45;;
31206;SDS011;17834;52.992;8.856;2022-10-31T13:12:41;40.13;;;18.55;;
31206;SDS011;17834;52.992;8.856;2022-10-31T13:15:12;35.75;;;18.10;;
31206;SDS011;17834;52.992;8.856;2022-10-31T13:18:04;36.83;;;17.50;;
31206;SDS011;17834;52.992;8.856;2022-10-31T13:22:55;38.67;;;18.13;;
31206;SDS011;17834;52.992;8.856;2022-10-31T13:28:05;35.30;;;15.48;;
31206;SDS011;17834;52.992;8.856;2022-10-31T13:30:39;33.97;;;15.63;;
31206;SDS011;17834;52.992;8.856;2022-10-31T13:35:52;34.40;;;14.77;;
31206;SDS011;17834;52.992;8.856;2022-10-31T13:40:56;36.83;;;16.45;;
31206;SDS011;17834;52.992;8.856;2022-10-31T13:45:50;36.55;;;17.92;;
31206;SDS011;17834;52.992;8.856;2022-10-31T13:50:42;31.02;;;16.05;;
31206;SDS011;17834;52.992;8.856;2022-10-31T13:53:10;36.03;;;18.17;;
31206;SDS011;17834;52.992;8.856;2022-10-31T13:58:22;44.40;;;19.02;;
31206;SDS011;17834;52.992;8.856;2022-10-31T14:01:50;39.55;;;18.73;;
31206;SDS011;17834;52.992;8.856;2022-10-31T14:03:46;40.83;;;19.50;;
31206;SDS011;17834;52.992;8.856;2022-10-31T14:06:12;37.72;;;18.35;;
31206;SDS011;17834;52.992;8.856;2022-10-31T14:08:46;34.72;;;18.05;;
31206;SDS011;17834;52.992;8.856;2022-10-31T14:11:24;34.33;;;16.20;;
31206;SDS011;17834;52.992;8.856;2022-10-31T14:13:52;29.70;;;15.15;;
31206;SDS011;17834;52.992;8.856;2022-10-31T14:18:48;38.53;;;17.05;;
31206;SDS011;17834;52.992;8.856;2022-10-31T14:23:40;33.25;;;16.40;;
31206;SDS011;17834;52.992;8.856;2022-10-31T14:28:52;34.22;;;16.33;;
31206;SDS011;17834;52.992;8.856;2022-10-31T14:33:51;37.22;;;16.83;;
31206;SDS011;17834;52.992;8.856;2022-10-31T14:36:19;41.17;;;16.95;;
31206;SDS011;17834;52.992;8.856;2022-10-31T14:51:25;39.03;;;17.02;;
31206;SDS011;17834;52.992;8.856;2022-10-31T14:53:53;47.17;;;19.95;;
31206;SDS011;17834;52.992;8.856;2022-10-31T14:56:24;37.33;;;17.58;;
31206;SDS011;17834;52.992;8.856;2022-10-31T14:58:51;43.05;;;19.05;;
31206;SDS011;17834;52.992;8.856;2022-10-31T15:03:47;41.70;;;18.55;;
31206;SDS011;17834;52.992;8.856;2022-10-31T15:06:14;44.13;;;19.83;;
31206;SDS011;17834;52.992;8.856;2022-10-31T15:08:45;41.75;;;18.17;;
31206;SDS011;17834;52.992;8.856;2022-10-31T15:11:12;48.53;;;20.23;;
31206;SDS011;17834;52.992;8.856;2022-10-31T15:16:11;47.63;;;19.30;;
31206;SDS011;17834;52.992;8.856;2022-10-31T15:18:44;41.13;;;16.83;;
31206;SDS011;17834;52.992;8.856;2022-10-31T15:21:12;42.33;;;18.80;;
31206;SDS011;17834;52.992;8.856;2022-10-31T15:23:40;41.33;;;18.73;;
31206;SDS011;17834;52.992;8.856;2022-10-31T15:26:06;38.30;;;17.52;;
31206;SDS011;17834;52.992;8.856;2022-10-31T15:28:32;43.60;;;16.95;;
31206;SDS011;17834;52.992;8.856;2022-10-31T15:30:59;38.45;;;18.65;;
31206;SDS011;17834;52.992;8.856;2022-10-31T15:33:26;45.05;;;18.58;;
31206;SDS011;17834;52.992;8.856;2022-10-31T15:36:02;49.13;;;18.83;;
31206;SDS011;17834;52.992;8.856;2022-10-31T15:38:28;41.13;;;17.13;;
31206;SDS011;17834;52.992;8.856;2022-10-31T15:40:56;40.15;;;17.90;;
31206;SDS011;17834;52.992;8.856;2022-10-31T15:43:23;39.35;;;15.55;;
31206;SDS011;17834;52.992;8.856;2022-10-31T15:45:49;39.20;;;17.35;;
31206;SDS011;17834;52.992;8.856;2022-10-31T15:48:20;43.95;;;17.30;;
31206;SDS011;17834;52.992;8.856;2022-10-31T15:50:51;39.25;;;16.20;;
31206;SDS011;17834;52.992;8.856;2022-10-31T15:56:07;40.67;;;17.98;;
31206;SDS011;17834;52.992;8.856;2022-10-31T15:58:39;47.45;;;18.70;;
31206;SDS011;17834;52.992;8.856;2022-10-31T16:01:18;41.67;;;16.95;;
31206;SDS011;17834;52.992;8.856;2022-10-31T16:03:54;40.15;;;17.73;;
31206;SDS011;17834;52.992;8.856;2022-10-31T16:06:22;55.30;;;19.20;;
31206;SDS011;17834;52.992;8.856;2022-10-31T16:08:48;46.78;;;18.50;;
31206;SDS011;17834;52.992;8.856;2022-10-31T16:11:22;52.17;;;19.58;;
31206;SDS011;17834;52.992;8.856;2022-10-31T16:13:53;44.65;;;17.35;;
31206;SDS011;17834;52.992;8.856;2022-10-31T16:16:19;46.85;;;18.02;;
31206;SDS011;17834;52.992;8.856;2022-10-31T16:18:46;45.97;;;17.17;;
31206;SDS011;17834;52.992;8.856;2022-10-31T16:21:13;37.03;;;16.48;;
31206;SDS011;17834;52.992;8.856;2022-10-31T16:23:46;47.05;;;19.08;;
31206;SDS011;17834;52.992;8.856;2022-10-31T16:26:14;45.60;;;18.17;;
31206;SDS011;17834;52.992;8.856;2022-10-31T16:28:50;48.83;;;18.52;;
31206;SDS011;17834;52.992;8.856;2022-10-31T16:31:24;45.13;;;16.48;;